sensor_id;sensor_type;location;lat;lon;timestamp;pressure;altitude;pressure_sealevel;temperature;humidity
76424;BME280;65257;52.104;4.268;2023-05-14T00:01:12;102188.94;;;11.48;100.00
76424;BME280;65257;52.104;4.268;2023-05-14T00:03:37;102193.13;;;11.46;100.00
76424;BME280;65257;52.104;4.268;2023-05-14T00:06:05;102186.25;;;11.45;100.00
76424;BME280;65257;52.104;4.268;2023-05-14T00:08:31;102180.97;;;11.42;100.00
76424;BME280;65257;52.104;4.268;2023-05-14T00:10:56;102180.06;;;11.42;100.00
76424;BME280;65257;52.104;4.268;2023-05-14T00:13:21;102178.41;;;11.42;100.00
76424;BME280;65257;52.104;4.268;2023-05-14T00:15:47;102179.19;;;11.41;100.00
76424;BME280;65257;52.104;4.268;2023-05-14T00:18:12;102180.06;;;11.42;100.00
76424;BME280;65257;52.104;4.268;2023-05-14T00:20:38;102176.56;;;11.40;100.00
76424;BME280;65257;52.104;4.268;2023-05-14T00:23:03;102173.88;;;11.38;100.00
76424;BME280;65257;52.104;4.268;2023-05-14T00:25:28;102172.88;;;11.35;100.00
76424;BME280;65257;52.104;4.268;2023-05-14T00:27:54;102157.56;;;11.36;100.00
76424;BME280;65257;52.104;4.268;2023-05-14T00:30:20;102172.88;;;11.35;100.00
76424;BME280;65257;52.104;4.268;2023-05-14T00:32:45;102162.63;;;11.35;100.00
76424;BME280;65257;52.104;4.268;2023-05-14T00:35:10;102156.44;;;11.31;100.00
76424;BME280;65257;52.104;4.268;2023-05-14T00:37:36;102151.31;;;11.31;100.00
76424;BME280;65257;52.104;4.268;2023-05-14T00:40:02;102161.38;;;11.28;100.00
76424;BME280;65257;52.104;4.268;2023-05-14T00:42:27;102152.75;;;11.26;100.00
76424;BME280;65257;52.104;4.268;2023-05-14T00:44:56;102156.91;;;11.24;100.00
76424;BME280;65257;52.104;4.268;2023-05-14T00:47:21;102155.97;;;11.22;100.00
76424;BME280;65257;52.104;4.268;2023-05-14T00:49:47;102154.97;;;11.20;100.00
76424;BME280;65257;52.104;4.268;2023-05-14T00:52:13;102154.00;;;11.18;100.00
76424;BME280;65257;52.104;4.268;2023-05-14T00:54:38;102145.38;;;11.16;100.00
76424;BME280;65257;52.104;4.268;2023-05-14T00:57:05;102152.28;;;11.17;100.00
76424;BME280;65257;52.104;4.268;2023-05-14T00:59:31;102143.69;;;11.16;100.00
76424;BME280;65257;52.104;4.268;2023-05-14T01:01:56;102144.66;;;11.18;100.00
76424;BME280;65257;52.104;4.268;2023-05-14T01:04:22;102144.59;;;11.17;100.00
76424;BME280;65257;52.104;4.268;2023-05-14T01:07:18;102138.66;;;11.18;100.00
76424;BME280;65257;52.104;4.268;2023-05-14T01:09:54;102140.97;;;11.13;100.00
76424;BME280;65257;52.104;4.268;2023-05-14T01:15:20;102137.44;;;11.11;100.00
76424;BME280;65257;52.104;4.268;2023-05-14T01:17:51;102141.84;;;11.14;100.00
76424;BME280;65257;52.104;4.268;2023-05-14T01:20:17;102134.97;;;11.13;100.00
76424;BME280;65257;52.104;4.268;2023-05-14T01:22:43;102130.50;;;11.09;100.00
76424;BME280;65257;52.104;4.268;2023-05-14T01:25:08;102132.22;;;11.10;100.00
76424;BME280;65257;52.104;4.268;2023-05-14T01:30:30;102128.66;;;11.06;100.00
76424;BME280;65257;52.104;4.268;2023-05-14T01:32:58;102124.47;;;11.08;100.00
76424;BME280;65257;52.104;4.268;2023-05-14T01:35:28;102121.91;;;11.08;100.00
76424;BME280;65257;52.104;4.268;2023-05-14T01:37:59;102119.25;;;11.07;100.00
76424;BME280;65257;52.104;4.268;2023-05-14T01:40:25;102121.03;;;11.08;100.00
76424;BME280;65257;52.104;4.268;2023-05-14T01:42:52;102117.50;;;11.06;100.00
76424;BME280;65257;52.104;4.268;2023-05-14T01:45:24;102113.19;;;11.05;100.00
76424;BME280;65257;52.104;4.268;2023-05-14T01:47:50;102107.09;;;11.03;100.00
76424;BME280;65257;52.104;4.268;2023-05-14T01:50:16;102103.75;;;11.04;100.00
76424;BME280;65257;52.104;4.268;2023-05-14T01:52:42;102107.97;;;11.03;100.00
76424;BME280;65257;52.104;4.268;2023-05-14T01:55:07;102112.38;;;11.06;100.00
76424;BME280;65257;52.104;4.268;2023-05-14T01:57:33;102108.88;;;11.04;100.00
76424;BME280;65257;52.104;4.268;2023-05-14T01:59:58;102115.75;;;11.05;100.00
76424;BME280;65257;52.104;4.268;2023-05-14T02:02:24;102116.69;;;11.07;100.00
76424;BME280;65257;52.104;4.268;2023-05-14T02:04:50;102117.97;;;11.15;100.00
76424;BME280;65257;52.104;4.268;2023-05-14T02:07:15;102112.13;;;11.17;100.00
76424;BME280;65257;52.104;4.268;2023-05-14T02:09:41;102109.50;;;11.16;100.00
76424;BME280;65257;52.104;4.268;2023-05-14T02:12:08;102112.00;;;11.14;100.00
76424;BME280;65257;52.104;4.268;2023-05-14T02:14:33;102117.91;;;11.13;100.00
76424;BME280;65257;52.104;4.268;2023-05-14T02:16:59;102116.41;;;11.17;100.00
76424;BME280;65257;52.104;4.268;2023-05-14T02:19:25;102113.41;;;11.09;100.00
76424;BME280;65257;52.104;4.268;2023-05-14T02:21:51;102109.00;;;11.07;100.00
76424;BME280;65257;52.104;4.268;2023-05-14T02:24:16;102107.44;;;11.09;100.00
76424;BME280;65257;52.104;4.268;2023-05-14T02:26:42;102107.56;;;11.12;100.00
76424;BME280;65257;52.104;4.268;2023-05-14T02:29:07;102102.31;;;11.09;100.00
76424;BME280;65257;52.104;4.268;2023-05-14T02:31:33;102096.84;;;11.03;100.00
76424;BME280;65257;52.104;4.268;2023-05-14T02:34:00;102091.72;;;11.03;100.00
76424;BME280;65257;52.104;4.268;2023-05-14T02:36:26;102083.97;;;11.01;100.00
76424;BME280;65257;52.104;4.268;2023-05-14T02:38:51;102091.91;;;11.06;100.00
76424;BME280;65257;52.104;4.268;2023-05-14T02:41:17;102086.78;;;11.06;100.00
76424;BME280;65257;52.104;4.268;2023-05-14T02:43:43;102088.38;;;11.04;100.00
76424;BME280;65257;52.104;4.268;2023-05-14T02:46:08;102086.94;;;11.09;100.00
76424;BME280;65257;52.104;4.268;2023-05-14T02:48:35;102089.25;;;11.04;100.00
76424;BME280;65257;52.104;4.268;2023-05-14T02:51:01;102086.78;;;11.06;100.00
76424;BME280;65257;52.104;4.268;2023-05-14T02:53:26;102085.97;;;11.07;100.00
76424;BME280;65257;52.104;4.268;2023-05-14T02:55:51;102080.22;;;11.11;100.00
76424;BME280;65257;52.104;4.268;2023-05-14T02:58:17;102084.63;;;11.13;100.00
76424;BME280;65257;52.104;4.268;2023-05-14T03:00:43;102076.84;;;11.12;100.00
76424;BME280;65257;52.104;4.268;2023-05-14T03:03:08;102086.06;;;11.08;100.00
76424;BME280;65257;52.104;4.268;2023-05-14T03:05:34;102077.56;;;11.09;100.00
76424;BME280;65257;52.104;4.268;2023-05-14T03:07:59;102084.22;;;11.06;100.00
76424;BME280;65257;52.104;4.268;2023-05-14T03:10:25;102074.59;;;11.02;100.00
76424;BME280;65257;52.104;4.268;2023-05-14T03:12:50;102074.59;;;11.02;100.00
76424;BME280;65257;52.104;4.268;2023-05-14T03:15:16;102074.47;;;10.99;100.00
76424;BME280;65257;52.104;4.268;2023-05-14T03:17:41;102069.16;;;10.96;100.00
76424;BME280;65257;52.104;4.268;2023-05-14T03:20:07;102069.34;;;10.99;100.00
76424;BME280;65257;52.104;4.268;2023-05-14T03:22:32;102069.47;;;11.02;100.00
76424;BME280;65257;52.104;4.268;2023-05-14T03:24:57;102071.06;;;11.00;100.00
76424;BME280;65257;52.104;4.268;2023-05-14T03:27:23;102068.44;;;10.98;100.00
76424;BME280;65257;52.104;4.268;2023-05-14T03:29:48;102064.34;;;11.02;100.00
76424;BME280;65257;52.104;4.268;2023-05-14T03:32:13;102055.53;;;10.97;100.00
76424;BME280;65257;52.104;4.268;2023-05-14T03:34:39;102063.88;;;10.93;100.00
76424;BME280;65257;52.104;4.268;2023-05-14T03:37:05;102062.09;;;10.92;100.00
76424;BME280;65257;52.104;4.268;2023-05-14T03:39:30;102065.47;;;10.91;100.00
76424;BME280;65257;52.104;4.268;2023-05-14T03:41:55;102065.31;;;10.88;100.00
76424;BME280;65257;52.104;4.268;2023-05-14T03:44:23;102070.59;;;10.91;100.00
76424;BME280;65257;52.104;4.268;2023-05-14T03:46:48;102068.94;;;10.91;100.00
76424;BME280;65257;52.104;4.268;2023-05-14T03:49:14;102072.03;;;10.86;100.00
76424;BME280;65257;52.104;4.268;2023-05-14T03:51:39;102078.50;;;10.79;100.00
76424;BME280;65257;52.104;4.268;2023-05-14T03:54:05;102076.81;;;10.80;100.00
76424;BME280;65257;52.104;4.268;2023-05-14T03:56:30;102079.44;;;10.81;100.00
76424;BME280;65257;52.104;4.268;2023-05-14T03:58:55;102074.31;;;10.81;100.00
76424;BME280;65257;52.104;4.268;2023-05-14T04:01:21;102073.59;;;10.67;100.00
76424;BME280;65257;52.104;4.268;2023-05-14T04:03:46;102077.59;;;10.62;100.00
76424;BME280;65257;52.104;4.268;2023-05-14T04:06:12;102077.78;;;10.65;100.00
76424;BME280;65257;52.104;4.268;2023-05-14T04:08:37;102074.56;;;10.69;100.00
76424;BME280;65257;52.104;4.268;2023-05-14T04:11:03;102076.47;;;10.74;100.00
76424;BME280;65257;52.104;4.268;2023-05-14T04:13:28;102079.84;;;10.73;100.00
76424;BME280;65257;52.104;4.268;2023-05-14T04:15:53;102082.31;;;10.71;100.00
76424;BME280;65257;52.104;4.268;2023-05-14T04:18:19;102083.44;;;10.76;100.00
76424;BME280;65257;52.104;4.268;2023-05-14T04:20:44;102078.59;;;10.81;100.00
76424;BME280;65257;52.104;4.268;2023-05-14T04:23:10;102075.88;;;10.78;100.00
76424;BME280;65257;52.104;4.268;2023-05-14T04:25:35;102075.88;;;10.78;100.00
76424;BME280;65257;52.104;4.268;2023-05-14T04:28:00;102066.25;;;10.74;100.00
76424;BME280;65257;52.104;4.268;2023-05-14T04:30:26;102076.66;;;10.77;100.00
76424;BME280;65257;52.104;4.268;2023-05-14T04:32:51;102081.75;;;10.77;100.00
76424;BME280;65257;52.104;4.268;2023-05-14T04:35:16;102095.22;;;10.73;100.00
76424;BME280;65257;52.104;4.268;2023-05-14T04:37:42;102091.69;;;10.71;100.00
76424;BME280;65257;52.104;4.268;2023-05-14T04:40:08;102090.00;;;10.71;100.00
76424;BME280;65257;52.104;4.268;2023-05-14T04:42:36;102088.16;;;10.68;100.00
76424;BME280;65257;52.104;4.268;2023-05-14T04:45:03;102077.06;;;10.68;100.00
76424;BME280;65257;52.104;4.268;2023-05-14T04:47:30;102080.41;;;10.67;100.00
76424;BME280;65257;52.104;4.268;2023-05-14T04:49:55;102078.72;;;10.67;100.00
76424;BME280;65257;52.104;4.268;2023-05-14T04:52:22;102090.09;;;10.73;100.00
76424;BME280;65257;52.104;4.268;2023-05-14T04:54:47;102099.44;;;10.72;100.00
76424;BME280;65257;52.104;4.268;2023-05-14T04:57:12;102099.97;;;10.66;100.00
76424;BME280;65257;52.104;4.268;2023-05-14T04:59:38;102097.66;;;10.71;100.00
76424;BME280;65257;52.104;4.268;2023-05-14T05:02:03;102088.72;;;10.79;100.00
76424;BME280;65257;52.104;4.268;2023-05-14T05:04:29;102093.78;;;10.78;100.00
76424;BME280;65257;52.104;4.268;2023-05-14T05:06:54;102084.16;;;10.74;100.00
76424;BME280;65257;52.104;4.268;2023-05-14T05:09:19;102091.75;;;10.72;100.00
76424;BME280;65257;52.104;4.268;2023-05-14T05:11:45;102088.66;;;10.78;100.00
76424;BME280;65257;52.104;4.268;2023-05-14T05:14:10;102093.94;;;10.81;100.00
76424;BME280;65257;52.104;4.268;2023-05-14T05:16:36;102096.66;;;10.84;100.00
76424;BME280;65257;52.104;4.268;2023-05-14T05:19:01;102091.22;;;10.78;100.00
76424;BME280;65257;52.104;4.268;2023-05-14T05:21:27;102101.75;;;10.67;100.00
76424;BME280;65257;52.104;4.268;2023-05-14T05:23:52;102102.78;;;10.71;100.00
76424;BME280;65257;52.104;4.268;2023-05-14T05:26:17;102100.34;;;10.73;100.00
76424;BME280;65257;52.104;4.268;2023-05-14T05:28:43;102110.56;;;10.73;100.00
76424;BME280;65257;52.104;4.268;2023-05-14T05:31:08;102103.84;;;10.75;100.00
76424;BME280;65257;52.104;4.268;2023-05-14T05:33:34;102105.63;;;10.76;100.00
76424;BME280;65257;52.104;4.268;2023-05-14T05:35:59;102104.50;;;10.71;100.00
76424;BME280;65257;52.104;4.268;2023-05-14T05:38:25;102108.78;;;10.72;100.00
76424;BME280;65257;52.104;4.268;2023-05-14T05:40:51;102101.16;;;10.88;100.00
76424;BME280;65257;52.104;4.268;2023-05-14T05:43:16;102104.69;;;10.90;100.00
76424;BME280;65257;52.104;4.268;2023-05-14T05:45:42;102110.69;;;10.90;100.00
76424;BME280;65257;52.104;4.268;2023-05-14T05:48:08;102108.28;;;10.93;100.00
76424;BME280;65257;52.104;4.268;2023-05-14T05:50:33;102116.88;;;10.94;100.00
76424;BME280;65257;52.104;4.268;2023-05-14T05:52:58;102120.69;;;11.02;100.00
76424;BME280;65257;52.104;4.268;2023-05-14T05:55:24;102116.44;;;11.02;100.00
76424;BME280;65257;52.104;4.268;2023-05-14T05:57:49;102109.66;;;11.03;100.00
76424;BME280;65257;52.104;4.268;2023-05-14T06:00:15;102114.47;;;11.13;100.00
76424;BME280;65257;52.104;4.268;2023-05-14T06:02:41;102115.53;;;11.16;100.00
76424;BME280;65257;52.104;4.268;2023-05-14T06:05:07;102114.81;;;11.19;100.00
76424;BME280;65257;52.104;4.268;2023-05-14T06:07:33;102114.97;;;11.22;100.00
76424;BME280;65257;52.104;4.268;2023-05-14T06:09:59;102118.66;;;11.27;100.00
76424;BME280;65257;52.104;4.268;2023-05-14T06:12:24;102113.03;;;11.34;100.00
76424;BME280;65257;52.104;4.268;2023-05-14T06:14:50;102107.91;;;11.34;100.00
76424;BME280;65257;52.104;4.268;2023-05-14T06:17:16;102114.31;;;11.42;100.00
76424;BME280;65257;52.104;4.268;2023-05-14T06:19:41;102108.38;;;11.43;100.00
76424;BME280;65257;52.104;4.268;2023-05-14T06:22:06;102120.47;;;11.46;100.00
76424;BME280;65257;52.104;4.268;2023-05-14T06:24:32;102116.78;;;11.41;100.00
76424;BME280;65257;52.104;4.268;2023-05-14T06:26:57;102117.69;;;11.41;100.00
76424;BME280;65257;52.104;4.268;2023-05-14T06:29:23;102126.66;;;11.49;100.00
76424;BME280;65257;52.104;4.268;2023-05-14T06:31:49;102117.69;;;11.41;100.00
76424;BME280;65257;52.104;4.268;2023-05-14T06:34:14;102122.81;;;11.57;100.00
76424;BME280;65257;52.104;4.268;2023-05-14T06:36:39;102125.94;;;11.52;100.00
76424;BME280;65257;52.104;4.268;2023-05-14T06:39:05;102126.03;;;11.69;100.00
76424;BME280;65257;52.104;4.268;2023-05-14T06:41:30;102125.66;;;11.63;100.00
76424;BME280;65257;52.104;4.268;2023-05-14T06:43:56;102118.50;;;11.72;100.00
76424;BME280;65257;52.104;4.268;2023-05-14T06:46:22;102114.91;;;11.86;100.00
76424;BME280;65257;52.104;4.268;2023-05-14T06:48:47;102119.31;;;11.89;100.00
76424;BME280;65257;52.104;4.268;2023-05-14T06:51:13;102113.47;;;11.91;100.00
76424;BME280;65257;52.104;4.268;2023-05-14T06:53:39;102109.16;;;11.90;100.00
76424;BME280;65257;52.104;4.268;2023-05-14T06:56:05;102101.63;;;11.93;100.00
76424;BME280;65257;52.104;4.268;2023-05-14T06:58:30;102099.84;;;11.92;100.00
76424;BME280;65257;52.104;4.268;2023-05-14T07:00:57;102101.16;;;11.84;100.00
76424;BME280;65257;52.104;4.268;2023-05-14T07:03:22;102108.34;;;11.91;100.00
76424;BME280;65257;52.104;4.268;2023-05-14T07:05:48;102112.63;;;12.09;100.00
76424;BME280;65257;52.104;4.268;2023-05-14T07:08:13;102102.19;;;12.22;100.00
76424;BME280;65257;52.104;4.268;2023-05-14T07:10:39;102102.59;;;12.31;100.00
76424;BME280;65257;52.104;4.268;2023-05-14T07:13:05;102097.53;;;12.15;100.00
76424;BME280;65257;52.104;4.268;2023-05-14T07:15:30;102106.56;;;12.07;100.00
76424;BME280;65257;52.104;4.268;2023-05-14T07:17:56;102087.72;;;12.24;100.00
76424;BME280;65257;52.104;4.268;2023-05-14T07:20:21;102089.09;;;12.00;100.00
76424;BME280;65257;52.104;4.268;2023-05-14T07:22:48;102103.84;;;12.04;100.00
76424;BME280;65257;52.104;4.268;2023-05-14T07:25:14;102094.97;;;12.15;100.00
76424;BME280;65257;52.104;4.268;2023-05-14T07:27:39;102084.56;;;12.12;100.00
76424;BME280;65257;52.104;4.268;2023-05-14T07:30:06;102093.81;;;12.26;100.00
76424;BME280;65257;52.104;4.268;2023-05-14T07:32:31;102089.91;;;12.34;100.00
76424;BME280;65257;52.104;4.268;2023-05-14T07:34:57;102084.63;;;12.31;100.00
76424;BME280;65257;52.104;4.268;2023-05-14T07:37:22;102073.63;;;12.16;100.00
76424;BME280;65257;52.104;4.268;2023-05-14T07:39:52;102078.34;;;12.42;100.00
76424;BME280;65257;52.104;4.268;2023-05-14T07:42:18;102084.63;;;12.13;100.00
76424;BME280;65257;52.104;4.268;2023-05-14T07:44:43;102077.44;;;12.06;100.00
76424;BME280;65257;52.104;4.268;2023-05-14T07:47:09;102073.94;;;12.22;100.00
76424;BME280;65257;52.104;4.268;2023-05-14T07:49:35;102071.59;;;12.44;100.00
76424;BME280;65257;52.104;4.268;2023-05-14T07:52:00;102072.63;;;12.47;100.00
76424;BME280;65257;52.104;4.268;2023-05-14T07:54:26;102059.84;;;12.49;100.00
76424;BME280;65257;52.104;4.268;2023-05-14T07:56:51;102069.09;;;12.63;100.00
76424;BME280;65257;52.104;4.268;2023-05-14T07:59:17;102072.59;;;12.65;100.00
76424;BME280;65257;52.104;4.268;2023-05-14T08:01:42;102073.25;;;12.61;100.00
76424;BME280;65257;52.104;4.268;2023-05-14T08:04:08;102066.00;;;12.52;100.00
76424;BME280;65257;52.104;4.268;2023-05-14T08:06:36;102062.25;;;12.46;100.00
76424;BME280;65257;52.104;4.268;2023-05-14T08:09:01;102059.53;;;12.43;100.00
76424;BME280;65257;52.104;4.268;2023-05-14T08:11:29;102059.53;;;12.43;100.00
76424;BME280;65257;52.104;4.268;2023-05-14T08:13:55;102064.81;;;12.46;100.00
76424;BME280;65257;52.104;4.268;2023-05-14T08:16:20;102057.19;;;12.84;100.00
76424;BME280;65257;52.104;4.268;2023-05-14T08:18:46;102058.38;;;12.54;100.00
76424;BME280;65257;52.104;4.268;2023-05-14T08:21:11;102055.84;;;12.73;100.00
76424;BME280;65257;52.104;4.268;2023-05-14T08:23:36;102045.78;;;12.97;100.00
76424;BME280;65257;52.104;4.268;2023-05-14T08:26:02;102046.78;;;12.62;100.00
76424;BME280;65257;52.104;4.268;2023-05-14T08:28:27;102049.25;;;12.78;100.00
76424;BME280;65257;52.104;4.268;2023-05-14T08:30:53;102058.88;;;12.65;100.00
76424;BME280;65257;52.104;4.268;2023-05-14T08:33:18;102063.97;;;12.82;100.00
76424;BME280;65257;52.104;4.268;2023-05-14T08:35:43;102044.25;;;12.81;100.00
76424;BME280;65257;52.104;4.268;2023-05-14T08:38:09;102048.41;;;12.60;100.00
76424;BME280;65257;52.104;4.268;2023-05-14T08:40:37;102045.44;;;12.70;100.00
76424;BME280;65257;52.104;4.268;2023-05-14T08:43:05;102045.69;;;12.76;100.00
76424;BME280;65257;52.104;4.268;2023-05-14T08:45:32;102041.97;;;12.70;100.00
76424;BME280;65257;52.104;4.268;2023-05-14T08:47:59;102045.16;;;12.64;100.00
76424;BME280;65257;52.104;4.268;2023-05-14T08:50:30;102037.66;;;12.69;100.00
76424;BME280;65257;52.104;4.268;2023-05-14T08:52:56;102038.38;;;12.66;100.00
76424;BME280;65257;52.104;4.268;2023-05-14T08:55:21;102048.25;;;12.57;100.00
76424;BME280;65257;52.104;4.268;2023-05-14T08:57:48;102046.38;;;12.53;100.00
76424;BME280;65257;52.104;4.268;2023-05-14T09:00:13;102038.75;;;12.37;100.00
76424;BME280;65257;52.104;4.268;2023-05-14T09:02:39;102044.00;;;12.57;100.00
76424;BME280;65257;52.104;4.268;2023-05-14T09:05:05;102041.78;;;12.65;100.00
76424;BME280;65257;52.104;4.268;2023-05-14T09:07:32;102035.72;;;12.82;100.00
76424;BME280;65257;52.104;4.268;2023-05-14T09:09:58;102034.09;;;12.84;100.00
76424;BME280;65257;52.104;4.268;2023-05-14T09:12:23;102033.00;;;12.60;100.00
76424;BME280;65257;52.104;4.268;2023-05-14T09:14:49;102037.47;;;12.83;100.00
76424;BME280;65257;52.104;4.268;2023-05-14T09:17:15;102038.88;;;12.57;100.00
76424;BME280;65257;52.104;4.268;2023-05-14T09:19:42;102038.28;;;12.63;100.00
76424;BME280;65257;52.104;4.268;2023-05-14T09:22:10;102032.69;;;12.54;100.00
76424;BME280;65257;52.104;4.268;2023-05-14T09:24:36;102037.69;;;12.51;100.00
76424;BME280;65257;52.104;4.268;2023-05-14T09:27:03;102032.84;;;12.57;100.00
76424;BME280;65257;52.104;4.268;2023-05-14T09:29:29;102029.09;;;12.87;100.00
76424;BME280;65257;52.104;4.268;2023-05-14T09:31:56;102024.38;;;12.96;100.00
76424;BME280;65257;52.104;4.268;2023-05-14T09:34:26;102015.97;;;13.00;100.00
76424;BME280;65257;52.104;4.268;2023-05-14T09:37:02;102000.72;;;13.03;100.00
76424;BME280;65257;52.104;4.268;2023-05-14T09:39:29;102010.59;;;13.33;100.00
76424;BME280;65257;52.104;4.268;2023-05-14T09:41:55;102002.53;;;13.65;100.00
76424;BME280;65257;52.104;4.268;2023-05-14T09:44:21;101999.94;;;13.65;100.00
76424;BME280;65257;52.104;4.268;2023-05-14T09:46:48;102011.53;;;13.35;100.00
76424;BME280;65257;52.104;4.268;2023-05-14T09:49:14;102008.69;;;13.29;100.00
76424;BME280;65257;52.104;4.268;2023-05-14T09:51:39;102005.97;;;13.45;100.00
76424;BME280;65257;52.104;4.268;2023-05-14T09:54:05;102004.94;;;13.41;100.00
76424;BME280;65257;52.104;4.268;2023-05-14T09:56:32;102001.44;;;13.60;100.00
76424;BME280;65257;52.104;4.268;2023-05-14T09:58:57;102006.19;;;13.51;100.00
76424;BME280;65257;52.104;4.268;2023-05-14T10:01:23;102004.66;;;13.54;100.00
76424;BME280;65257;52.104;4.268;2023-05-14T10:03:49;102005.22;;;13.68;100.00
76424;BME280;65257;52.104;4.268;2023-05-14T10:06:16;101994.53;;;13.59;100.00
76424;BME280;65257;52.104;4.268;2023-05-14T10:08:44;101998.94;;;13.82;100.00
76424;BME280;65257;52.104;4.268;2023-05-14T10:11:14;102001.06;;;13.92;100.00
76424;BME280;65257;52.104;4.268;2023-05-14T10:13:47;101993.97;;;14.29;100.00
76424;BME280;65257;52.104;4.268;2023-05-14T10:18:51;101985.91;;;15.12;100.00
76424;BME280;65257;52.104;4.268;2023-05-14T10:21:21;101984.75;;;16.05;100.00
76424;BME280;65257;52.104;4.268;2023-05-14T10:23:49;101979.22;;;16.21;100.00
76424;BME280;65257;52.104;4.268;2023-05-14T10:26:15;101986.13;;;15.94;100.00
76424;BME280;65257;52.104;4.268;2023-05-14T10:28:41;101977.47;;;15.66;100.00
76424;BME280;65257;52.104;4.268;2023-05-14T10:31:10;101977.06;;;15.29;100.00
76424;BME280;65257;52.104;4.268;2023-05-14T10:33:50;101982.03;;;14.76;100.00
76424;BME280;65257;52.104;4.268;2023-05-14T10:36:17;101993.91;;;14.72;100.00
76424;BME280;65257;52.104;4.268;2023-05-14T10:38:43;101973.88;;;14.41;100.00
76424;BME280;65257;52.104;4.268;2023-05-14T10:41:18;101981.09;;;14.29;100.00
76424;BME280;65257;52.104;4.268;2023-05-14T10:43:46;101985.41;;;14.08;100.00
76424;BME280;65257;52.104;4.268;2023-05-14T10:46:12;101973.25;;;14.26;100.00
76424;BME280;65257;52.104;4.268;2023-05-14T10:48:41;101977.63;;;14.29;100.00
76424;BME280;65257;52.104;4.268;2023-05-14T10:51:08;101970.59;;;14.69;100.00
76424;BME280;65257;52.104;4.268;2023-05-14T10:53:37;101976.03;;;14.77;100.00
76424;BME280;65257;52.104;4.268;2023-05-14T10:56:04;101969.19;;;15.01;100.00
76424;BME280;65257;52.104;4.268;2023-05-14T10:58:30;101962.97;;;15.45;100.00
76424;BME280;65257;52.104;4.268;2023-05-14T11:00:59;101962.97;;;15.45;100.00
76424;BME280;65257;52.104;4.268;2023-05-14T11:03:28;101954.75;;;15.31;100.00
76424;BME280;65257;52.104;4.268;2023-05-14T11:05:55;101953.66;;;15.74;100.00
76424;BME280;65257;52.104;4.268;2023-05-14T11:08:21;101945.13;;;15.76;100.00
76424;BME280;65257;52.104;4.268;2023-05-14T11:10:47;101940.31;;;16.15;100.00
76424;BME280;65257;52.104;4.268;2023-05-14T11:13:13;101939.28;;;16.38;100.00
76424;BME280;65257;52.104;4.268;2023-05-14T11:15:41;101934.94;;;16.09;100.00
76424;BME280;65257;52.104;4.268;2023-05-14T11:18:11;101943.16;;;15.96;100.00
76424;BME280;65257;52.104;4.268;2023-05-14T11:20:37;101934.66;;;16.00;100.00
76424;BME280;65257;52.104;4.268;2023-05-14T11:23:02;101939.53;;;16.17;100.00
76424;BME280;65257;52.104;4.268;2023-05-14T11:25:28;101926.91;;;16.87;100.00
76424;BME280;65257;52.104;4.268;2023-05-14T11:27:54;101933.88;;;16.90;100.00
76424;BME280;65257;52.104;4.268;2023-05-14T11:30:23;101921.69;;;16.84;100.00
76424;BME280;65257;52.104;4.268;2023-05-14T11:32:49;101920.34;;;16.39;100.00
76424;BME280;65257;52.104;4.268;2023-05-14T11:35:15;101926.28;;;16.65;100.00
76424;BME280;65257;52.104;4.268;2023-05-14T11:37:42;101934.81;;;16.33;100.00
76424;BME280;65257;52.104;4.268;2023-05-14T11:40:13;101920.91;;;16.88;100.00
76424;BME280;65257;52.104;4.268;2023-05-14T11:42:38;101914.75;;;16.54;100.00
76424;BME280;65257;52.104;4.268;2023-05-14T11:45:04;101917.97;;;17.08;100.00
76424;BME280;65257;52.104;4.268;2023-05-14T11:47:30;101912.03;;;16.49;100.00
76424;BME280;65257;52.104;4.268;2023-05-14T11:49:56;101912.34;;;16.58;100.00
76424;BME280;65257;52.104;4.268;2023-05-14T11:52:22;101911.47;;;16.90;100.00
76424;BME280;65257;52.104;4.268;2023-05-14T11:54:47;101912.38;;;16.91;100.00
76424;BME280;65257;52.104;4.268;2023-05-14T11:57:20;101918.06;;;16.79;100.00
76424;BME280;65257;52.104;4.268;2023-05-14T11:59:46;101912.53;;;16.97;100.00
76424;BME280;65257;52.104;4.268;2023-05-14T12:02:16;101912.00;;;17.10;100.00
76424;BME280;65257;52.104;4.268;2023-05-14T12:04:43;101911.06;;;16.75;100.00
76424;BME280;65257;52.104;4.268;2023-05-14T12:07:14;101900.66;;;16.72;100.00
76424;BME280;65257;52.104;4.268;2023-05-14T12:09:42;101905.44;;;16.90;100.00
76424;BME280;65257;52.104;4.268;2023-05-14T12:12:13;101902.72;;;16.85;100.00
76424;BME280;65257;52.104;4.268;2023-05-14T12:14:40;101900.41;;;16.63;100.00
76424;BME280;65257;52.104;4.268;2023-05-14T12:17:19;101901.84;;;16.85;100.00
76424;BME280;65257;52.104;4.268;2023-05-14T12:19:47;101899.75;;;16.72;100.00
76424;BME280;65257;52.104;4.268;2023-05-14T12:22:15;101899.53;;;16.33;100.00
76424;BME280;65257;52.104;4.268;2023-05-14T12:24:42;101891.25;;;16.46;100.00
76424;BME280;65257;52.104;4.268;2023-05-14T12:27:09;101896.53;;;16.49;100.00
76424;BME280;65257;52.104;4.268;2023-05-14T12:29:38;101896.19;;;16.37;100.00
76424;BME280;65257;52.104;4.268;2023-05-14T12:32:07;101887.81;;;16.75;100.00
76424;BME280;65257;52.104;4.268;2023-05-14T12:34:34;101891.47;;;16.52;100.00
76424;BME280;65257;52.104;4.268;2023-05-14T12:37:00;101894.28;;;16.30;100.00
76424;BME280;65257;52.104;4.268;2023-05-14T12:39:25;101887.00;;;16.17;100.00
76424;BME280;65257;52.104;4.268;2023-05-14T12:41:50;101888.56;;;16.12;100.00
76424;BME280;65257;52.104;4.268;2023-05-14T12:44:16;101890.94;;;16.34;100.00